Time;durP1;ratioP1;P1;durP2;ratioP2;P2;SDS_P1;SDS_P2;PMS_P1;PMS_P2;Temp;Humidity;BMP_temperature;BMP_pressure;BME280_temperature;BME280_humidity;BME280_pressure;Samples;Min_cycle;Max_cycle;Signal;HPM_P1;HPM_P2
2023/08/13 00:00:55;;;;;;;14.00;3.92;;;14.40;99.90;;;;;;5054999;28;20144;-25
2023/08/13 00:03:21;;;;;;;13.73;3.05;;;14.40;99.90;;;;;;5053785;28;20160;-25
2023/08/13 00:05:47;;;;;;;17.10;5.47;;;14.40;99.90;;;;;;5055373;28;20044;-25
2023/08/13 00:08:13;;;;;;;10.27;2.90;;;14.30;99.90;;;;;;5055412;28;20052;-25
2023/08/13 00:10:39;;;;;;;9.00;3.33;;;14.30;99.90;;;;;;5054806;28;20505;-25
2023/08/13 00:13:05;;;;;;;13.73;3.53;;;14.20;99.90;;;;;;5054758;28;20518;-25
2023/08/13 00:15:31;;;;;;;14.73;3.35;;;14.20;99.90;;;;;;5053552;28;20501;-25
2023/08/13 00:17:57;;;;;;;14.68;4.45;;;14.10;99.90;;;;;;5055208;28;20049;-26
2023/08/13 00:20:22;;;;;;;15.95;3.65;;;14.10;99.90;;;;;;5053344;28;20380;-25
2023/08/13 00:22:48;;;;;;;10.88;3.30;;;14.00;99.90;;;;;;5053388;28;20077;-25
2023/08/13 00:25:14;;;;;;;14.43;4.43;;;14.00;99.90;;;;;;5053465;28;20498;-25
2023/08/13 00:27:39;;;;;;;14.73;2.90;;;14.00;99.90;;;;;;5055027;28;20049;-25
2023/08/13 00:30:06;;;;;;;13.55;3.50;;;14.00;99.90;;;;;;5053271;28;20044;-25
2023/08/13 00:32:32;;;;;;;16.45;3.58;;;14.10;99.90;;;;;;5054358;28;20049;-25
2023/08/13 00:34:58;;;;;;;14.20;2.80;;;14.20;99.90;;;;;;5054597;28;20106;-24
2023/08/13 00:37:23;;;;;;;9.88;2.55;;;14.10;99.90;;;;;;5054275;28;20103;-25
2023/08/13 00:39:49;;;;;;;15.95;3.00;;;14.20;99.90;;;;;;5054257;28;20048;-25
2023/08/13 00:42:16;;;;;;;15.45;3.38;;;14.20;99.90;;;;;;5054217;28;20368;-26
2023/08/13 00:44:41;;;;;;;15.23;4.00;;;14.20;99.90;;;;;;5054973;28;20437;-25
2023/08/13 00:47:08;;;;;;;15.38;3.92;;;14.20;99.90;;;;;;5054082;28;20037;-25
2023/08/13 00:49:34;;;;;;;13.57;3.33;;;14.20;99.90;;;;;;5052588;28;20045;-25
2023/08/13 00:52:00;;;;;;;16.55;3.70;;;14.20;99.90;;;;;;5053437;28;20102;-25
2023/08/13 00:54:26;;;;;;;15.20;4.05;;;14.20;99.90;;;;;;5054007;28;20103;-24
2023/08/13 00:56:53;;;;;;;13.73;3.17;;;14.20;99.90;;;;;;5054214;28;20479;-25
2023/08/13 00:59:19;;;;;;;9.63;3.20;;;14.20;99.90;;;;;;5052782;28;20049;-25
2023/08/13 01:01:46;;;;;;;13.00;4.07;;;14.20;99.90;;;;;;5054655;28;20057;-25
2023/08/13 01:04:11;;;;;;;16.35;4.20;;;14.20;99.90;;;;;;5053830;28;20053;-25
2023/08/13 01:06:59;;;;;;;17.80;4.45;;;14.10;99.90;;;;;;5054313;28;20103;-24
2023/08/13 01:09:25;;;;;;;13.00;3.10;;;14.10;99.90;;;;;;5054394;28;20099;-25
2023/08/13 01:12:06;;;;;;;14.23;3.72;;;14.10;99.90;;;;;;5053999;28;20057;-25
2023/08/13 01:14:43;;;;;;;12.85;3.10;;;14.00;99.90;;;;;;5054037;28;20076;-25
2023/08/13 01:17:11;;;;;;;11.77;3.17;;;14.00;99.90;;;;;;5054331;28;20080;-25
2023/08/13 01:19:37;;;;;;;10.82;2.63;;;13.90;99.90;;;;;;5053685;28;20049;-25
2023/08/13 01:22:03;;;;;;;15.77;3.03;;;13.90;99.90;;;;;;5053690;28;20055;-25
2023/08/13 01:24:29;;;;;;;13.85;3.38;;;13.90;99.90;;;;;;5053617;28;20463;-24
2023/08/13 01:27:06;;;;;;;15.63;4.30;;;13.90;99.90;;;;;;5053198;28;20122;-25
2023/08/13 01:29:59;;;;;;;13.98;3.92;;;13.90;99.90;;;;;;5053597;28;20486;-25
2023/08/13 01:32:46;;;;;;;18.23;3.97;;;13.90;99.90;;;;;;5052252;28;20063;-25
2023/08/13 01:35:14;;;;;;;15.25;4.10;;;13.90;99.90;;;;;;5054073;28;20045;-24
2023/08/13 01:37:42;;;;;;;16.38;3.50;;;13.80;99.90;;;;;;5053444;28;20052;-24
2023/08/13 01:40:08;;;;;;;15.75;4.57;;;13.80;99.90;;;;;;5053750;28;20045;-25
2023/08/13 01:42:34;;;;;;;11.13;3.75;;;13.80;99.90;;;;;;5052749;28;20084;-25
2023/08/13 01:44:59;;;;;;;16.98;4.55;;;13.90;99.90;;;;;;5054210;28;20099;-25
2023/08/13 01:47:25;;;;;;;20.23;4.13;;;13.90;99.90;;;;;;5053963;28;20421;-25
2023/08/13 01:49:51;;;;;;;17.95;5.15;;;14.00;99.90;;;;;;5051912;28;20057;-24
2023/08/13 01:52:16;;;;;;;11.98;3.63;;;14.00;99.90;;;;;;5053370;28;20057;-24
2023/08/13 01:54:42;;;;;;;16.77;3.65;;;14.00;99.90;;;;;;5053870;28;20399;-25
2023/08/13 01:57:08;;;;;;;15.45;3.90;;;14.10;99.90;;;;;;5052345;28;20049;-24
2023/08/13 01:59:33;;;;;;;15.40;3.40;;;14.00;99.90;;;;;;5053254;28;20060;-25
2023/08/13 02:01:59;;;;;;;20.13;5.13;;;14.00;99.90;;;;;;5054054;28;20087;-25
2023/08/13 02:04:25;;;;;;;14.50;3.67;;;13.90;99.90;;;;;;5057220;28;20403;-25
2023/08/13 02:06:50;;;;;;;21.30;4.28;;;13.90;99.90;;;;;;5057074;28;20045;-25
2023/08/13 02:09:16;;;;;;;17.52;4.13;;;13.90;99.90;;;;;;5057113;28;20128;-25
2023/08/13 02:11:42;;;;;;;16.50;3.80;;;13.90;99.90;;;;;;5057089;28;20049;-24
2023/08/13 02:14:08;;;;;;;18.55;4.65;;;13.90;99.90;;;;;;5056714;28;20044;-24
2023/08/13 02:16:34;;;;;;;15.82;4.10;;;13.80;99.90;;;;;;5056014;28;20131;-24
2023/08/13 02:18:59;;;;;;;19.83;3.70;;;13.80;99.90;;;;;;5057438;28;20167;-24
2023/08/13 02:21:25;;;;;;;20.42;5.13;;;13.90;99.90;;;;;;5055877;28;20063;-24
2023/08/13 02:23:51;;;;;;;18.60;4.45;;;13.90;99.90;;;;;;5056865;28;20060;-24
2023/08/13 02:26:16;;;;;;;14.40;4.43;;;13.90;99.90;;;;;;5056680;28;20048;-25
2023/08/13 02:28:45;;;;;;;22.25;4.78;;;13.90;99.90;;;;;;5056750;28;20045;-24
2023/08/13 02:31:11;;;;;;;14.93;3.53;;;13.90;99.90;;;;;;5056731;28;20129;-25
2023/08/13 02:33:37;;;;;;;17.30;4.70;;;13.80;99.90;;;;;;5055463;28;20080;-24
2023/08/13 02:36:02;;;;;;;22.13;4.32;;;13.80;99.90;;;;;;5056519;28;20037;-24
2023/08/13 02:38:28;;;;;;;12.75;3.80;;;13.80;99.90;;;;;;5056260;28;20478;-24
2023/08/13 02:40:54;;;;;;;16.55;5.90;;;13.80;99.90;;;;;;5055561;28;20128;-24
2023/08/13 02:43:20;;;;;;;17.45;4.80;;;13.80;99.90;;;;;;5056394;28;20402;-24
2023/08/13 02:45:45;;;;;;;19.70;4.88;;;13.70;99.90;;;;;;5038650;28;20155;-24
2023/08/13 02:48:11;;;;;;;16.25;4.45;;;13.80;99.90;;;;;;5056405;28;20052;-24
2023/08/13 02:50:37;;;;;;;16.73;3.72;;;13.80;99.90;;;;;;5056671;28;20056;-24
2023/08/13 02:53:03;;;;;;;17.73;4.53;;;13.90;99.90;;;;;;5056252;28;20045;-24
2023/08/13 02:55:28;;;;;;;17.33;4.40;;;13.80;99.90;;;;;;5056238;28;20124;-24
2023/08/13 02:57:54;;;;;;;16.63;4.40;;;13.80;99.90;;;;;;5055216;28;20041;-24
2023/08/13 03:00:21;;;;;;;19.10;4.47;;;13.90;99.90;;;;;;5056697;28;20053;-24
2023/08/13 03:02:46;;;;;;;18.42;4.47;;;13.80;99.90;;;;;;5054967;28;20049;-24
2023/08/13 03:05:12;;;;;;;16.52;4.60;;;13.80;99.90;;;;;;5055551;28;20047;-24
2023/08/13 03:07:38;;;;;;;20.52;4.45;;;13.70;99.90;;;;;;5055992;28;20099;-24
2023/08/13 03:10:04;;;;;;;15.55;4.18;;;13.70;99.90;;;;;;5056051;28;20099;-24
2023/08/13 03:12:30;;;;;;;18.50;4.72;;;13.70;99.90;;;;;;5056772;28;20110;-24
2023/08/13 03:14:56;;;;;;;20.77;5.30;;;13.70;99.90;;;;;;5055566;28;20406;-24
2023/08/13 03:17:21;;;;;;;17.27;5.10;;;13.60;99.90;;;;;;5055530;28;20049;-24
2023/08/13 03:19:47;;;;;;;21.13;5.15;;;13.70;99.90;;;;;;5055841;28;20075;-24
2023/08/13 03:22:13;;;;;;;15.38;5.22;;;13.70;99.90;;;;;;5055745;28;20041;-25
2023/08/13 03:24:38;;;;;;;17.77;5.03;;;13.60;99.90;;;;;;5055761;28;20525;-24
2023/08/13 03:27:04;;;;;;;19.08;5.45;;;13.60;99.90;;;;;;5055279;28;20428;-24
2023/08/13 03:29:30;;;;;;;24.13;6.75;;;13.60;99.90;;;;;;5056148;28;20057;-24
2023/08/13 03:31:56;;;;;;;21.77;5.38;;;13.60;99.90;;;;;;5055579;28;20155;-24
2023/08/13 03:34:21;;;;;;;20.15;5.20;;;13.50;99.90;;;;;;5054525;28;20057;-24
2023/08/13 03:36:47;;;;;;;23.63;6.15;;;13.50;99.90;;;;;;5056001;28;20375;-24
2023/08/13 03:39:13;;;;;;;18.38;5.32;;;13.50;99.90;;;;;;5055444;28;20051;-24
2023/08/13 03:41:38;;;;;;;19.45;4.60;;;13.50;99.90;;;;;;5056225;28;20055;-24
2023/08/13 03:44:04;;;;;;;19.08;5.80;;;13.50;99.90;;;;;;5055642;28;20044;-24
2023/08/13 03:46:30;;;;;;;18.25;5.35;;;13.50;99.90;;;;;;5055219;28;20502;-24
2023/08/13 03:48:55;;;;;;;16.98;5.18;;;13.50;99.90;;;;;;5054874;28;20053;-24
2023/08/13 03:51:21;;;;;;;19.98;5.10;;;13.50;99.90;;;;;;5055855;28;20090;-24
2023/08/13 03:53:47;;;;;;;21.20;6.88;;;13.50;99.90;;;;;;5055131;28;20045;-24
2023/08/13 03:56:12;;;;;;;16.55;5.70;;;13.60;99.90;;;;;;5055650;28;20041;-24
2023/08/13 03:58:38;;;;;;;23.40;6.03;;;13.80;99.90;;;;;;5054101;28;20052;-24
2023/08/13 04:01:05;;;;;;;27.30;6.57;;;13.90;99.90;;;;;;5055035;28;20052;-24
2023/08/13 04:03:31;;;;;;;28.88;6.93;;;14.00;99.90;;;;;;5054956;28;20139;-24
2023/08/13 04:05:57;;;;;;;18.25;5.18;;;14.10;99.90;;;;;;5054832;28;20557;-24
2023/08/13 04:08:22;;;;;;;16.60;5.68;;;14.10;99.90;;;;;;5055153;28;20056;-24
2023/08/13 04:10:50;;;;;;;21.85;5.50;;;14.10;99.90;;;;;;5037301;28;20430;-24
2023/08/13 04:13:15;;;;;;;18.65;4.85;;;14.30;99.90;;;;;;5054767;28;20052;-24
2023/08/13 04:15:41;;;;;;;19.52;6.00;;;14.30;99.90;;;;;;5054688;28;20041;-24
2023/08/13 04:18:07;;;;;;;16.45;4.68;;;14.40;99.90;;;;;;5055203;28;20178;-24
2023/08/13 04:20:35;;;;;;;26.60;6.25;;;14.40;99.90;;;;;;5055425;28;20049;-24
2023/08/13 04:23:01;;;;;;;20.95;5.32;;;14.40;99.90;;;;;;5054552;28;20186;-24
2023/08/13 04:25:26;;;;;;;26.35;5.32;;;14.40;99.90;;;;;;5052788;28;20128;-24
2023/08/13 04:27:52;;;;;;;18.30;5.82;;;14.40;99.90;;;;;;5054462;28;20045;-24
2023/08/13 04:30:18;;;;;;;19.30;5.53;;;14.40;99.90;;;;;;5054472;28;20045;-24
2023/08/13 04:32:55;;;;;;;15.27;5.00;;;14.40;99.90;;;;;;5053464;28;20055;-24
2023/08/13 04:35:21;;;;;;;19.67;5.97;;;14.40;99.90;;;;;;5054565;28;20052;-24
2023/08/13 04:37:49;;;;;;;21.35;5.55;;;14.40;99.90;;;;;;5054268;28;20055;-24
2023/08/13 04:40:16;;;;;;;16.42;5.32;;;14.30;99.90;;;;;;5054268;28;20470;-24
2023/08/13 04:42:42;;;;;;;15.73;5.35;;;14.30;99.90;;;;;;5054243;28;20136;-25
2023/08/13 04:45:08;;;;;;;26.25;5.80;;;14.40;99.90;;;;;;5054621;28;20403;-24
2023/08/13 04:47:34;;;;;;;26.30;5.45;;;14.50;99.90;;;;;;5054138;28;20103;-24
2023/08/13 04:50:00;;;;;;;19.75;5.40;;;14.70;99.90;;;;;;5053749;28;20052;-24
2023/08/13 04:52:25;;;;;;;16.58;4.82;;;14.80;99.90;;;;;;5052829;28;20487;-24
2023/08/13 04:54:51;;;;;;;20.58;4.65;;;15.00;99.90;;;;;;5053396;28;20044;-24
2023/08/13 04:57:17;;;;;;;19.08;5.28;;;15.10;99.90;;;;;;5054229;28;20059;-24
2023/08/13 04:59:43;;;;;;;19.13;4.65;;;15.30;99.90;;;;;;5053976;28;20049;-24
2023/08/13 05:02:08;;;;;;;15.43;5.57;;;15.30;99.90;;;;;;5052751;28;20048;-24
2023/08/13 05:04:34;;;;;;;17.08;4.45;;;15.50;99.90;;;;;;5053879;28;20088;-24
2023/08/13 05:07:00;;;;;;;17.52;4.18;;;15.50;99.90;;;;;;5054079;28;20048;-25
2023/08/13 05:09:25;;;;;;;18.45;4.90;;;15.60;99.90;;;;;;5054376;28;20426;-24
2023/08/13 05:11:51;;;;;;;18.42;4.57;;;15.70;99.90;;;;;;5053777;28;20064;-25
2023/08/13 05:14:17;;;;;;;19.15;6.10;;;15.80;99.90;;;;;;5053779;28;20052;-25
2023/08/13 05:16:43;;;;;;;15.38;4.22;;;15.90;99.90;;;;;;5052529;28;20033;-24
2023/08/13 05:19:08;;;;;;;10.18;4.03;;;15.90;99.90;;;;;;5053716;28;20124;-25
2023/08/13 05:21:34;;;;;;;12.43;3.47;;;16.00;99.90;;;;;;5054788;28;20045;-24
2023/08/13 05:24:00;;;;;;;15.90;4.28;;;16.10;99.90;;;;;;5053625;28;20433;-24
2023/08/13 05:26:25;;;;;;;20.65;5.97;;;16.10;99.90;;;;;;5053829;28;20044;-24
2023/08/13 05:28:51;;;;;;;9.45;3.75;;;16.10;99.90;;;;;;5052361;28;20045;-25
2023/08/13 05:31:17;;;;;;;19.58;4.55;;;16.20;99.90;;;;;;5054081;28;20103;-25
2023/08/13 05:33:42;;;;;;;17.52;4.25;;;16.20;99.90;;;;;;5054103;28;20052;-25
2023/08/13 05:36:08;;;;;;;18.08;3.95;;;16.20;99.90;;;;;;5053462;28;20395;-25
2023/08/13 05:38:34;;;;;;;16.02;3.63;;;16.10;99.90;;;;;;5057066;28;20045;-25
2023/08/13 05:41:00;;;;;;;15.77;4.00;;;16.20;99.90;;;;;;5057519;28;20540;-25
2023/08/13 05:43:25;;;;;;;16.60;3.53;;;16.10;99.90;;;;;;5057607;28;20514;-25
2023/08/13 05:45:51;;;;;;;13.13;4.47;;;16.10;99.90;;;;;;5057312;28;20060;-25
2023/08/13 05:48:17;;;;;;;10.23;3.72;;;16.20;99.90;;;;;;5057346;28;20056;-24
2023/08/13 05:50:43;;;;;;;12.10;3.85;;;16.10;99.90;;;;;;5057460;28;20049;-25
2023/08/13 05:53:09;;;;;;;13.98;4.25;;;16.10;99.90;;;;;;5057991;28;20383;-25
2023/08/13 05:55:34;;;;;;;17.42;5.47;;;16.10;99.90;;;;;;5056408;28;20045;-24
2023/08/13 05:58:00;;;;;;;16.77;4.47;;;16.10;99.90;;;;;;5057319;28;20052;-25
2023/08/13 06:00:27;;;;;;;16.55;4.75;;;16.00;99.90;;;;;;5057334;28;20067;-25
2023/08/13 06:02:52;;;;;;;14.52;4.07;;;16.00;99.90;;;;;;5056020;28;20052;-25
2023/08/13 06:05:18;;;;;;;16.30;4.35;;;16.00;99.90;;;;;;5039853;28;20045;-24
2023/08/13 06:07:44;;;;;;;13.25;3.67;;;15.90;99.90;;;;;;5057169;28;20099;-25
2023/08/13 06:10:09;;;;;;;18.58;4.25;;;15.90;99.90;;;;;;5055923;28;20053;-24
2023/08/13 06:12:35;;;;;;;22.77;5.13;;;15.80;99.90;;;;;;5057065;28;20131;-25
2023/08/13 06:15:01;;;;;;;13.95;4.10;;;15.70;99.90;;;;;;5057011;28;20045;-25
2023/08/13 06:17:27;;;;;;;10.50;3.80;;;15.70;99.90;;;;;;5056987;28;20045;-25
2023/08/13 06:19:52;;;;;;;12.30;4.25;;;15.80;99.90;;;;;;5056957;28;20080;-24
2023/08/13 06:22:18;;;;;;;13.82;3.85;;;16.00;99.90;;;;;;5056864;28;20128;-25
2023/08/13 06:24:44;;;;;;;12.00;4.28;;;16.10;99.90;;;;;;5056827;28;20041;-25
2023/08/13 06:27:11;;;;;;;18.20;4.20;;;16.30;99.90;;;;;;5057270;28;20049;-25
2023/08/13 06:29:36;;;;;;;17.35;4.65;;;16.40;99.90;;;;;;5056764;28;20049;-25
2023/08/13 06:32:02;;;;;;;14.38;4.75;;;16.60;99.90;;;;;;5056699;28;20052;-25
2023/08/13 06:34:28;;;;;;;16.23;3.97;;;16.80;99.90;;;;;;5056823;28;20127;-24
2023/08/13 06:36:54;;;;;;;19.90;5.28;;;16.90;99.90;;;;;;5055633;28;20548;-24
2023/08/13 06:39:21;;;;;;;12.60;3.47;;;17.00;99.90;;;;;;5056877;28;20088;-25
2023/08/13 06:41:47;;;;;;;15.10;4.43;;;17.10;99.90;;;;;;5056370;28;20106;-25
2023/08/13 06:44:18;;;;;;;17.60;5.45;;;17.30;99.90;;;;;;5055294;28;20445;-25
2023/08/13 06:46:45;;;;;;;16.95;5.05;;;17.40;99.90;;;;;;5056347;28;20068;-25
2023/08/13 06:49:10;;;;;;;18.67;5.32;;;17.30;99.90;;;;;;5055899;28;20072;-25
2023/08/13 06:51:36;;;;;;;14.05;4.20;;;17.10;99.90;;;;;;5056366;28;20053;-25
2023/08/13 06:54:02;;;;;;;17.00;5.00;;;17.00;99.90;;;;;;5056335;28;20521;-24
2023/08/13 06:56:28;;;;;;;20.58;5.53;;;17.00;99.90;;;;;;5055072;28;20037;-25
2023/08/13 06:58:53;;;;;;;16.13;4.80;;;17.10;99.90;;;;;;5056231;28;20136;-25
2023/08/13 07:01:20;;;;;;;14.25;4.43;;;17.10;99.90;;;;;;5056207;28;20102;-25
2023/08/13 07:03:46;;;;;;;9.57;4.07;;;17.30;99.90;;;;;;5056111;28;20049;-25
2023/08/13 07:06:11;;;;;;;15.98;4.40;;;17.30;99.90;;;;;;5055798;28;20063;-26
2023/08/13 07:08:37;;;;;;;12.35;4.10;;;17.40;99.90;;;;;;5056032;28;20467;-25
2023/08/13 07:11:03;;;;;;;13.00;3.83;;;17.50;99.90;;;;;;5056833;28;20052;-25
2023/08/13 07:13:28;;;;;;;15.45;4.35;;;17.50;99.90;;;;;;5056224;28;20479;-25
2023/08/13 07:15:54;;;;;;;9.45;3.95;;;17.60;99.90;;;;;;5054740;28;20451;-25
2023/08/13 07:18:21;;;;;;;10.60;3.72;;;17.70;99.90;;;;;;5055881;28;20051;-25
2023/08/13 07:20:47;;;;;;;14.30;4.82;;;17.80;99.90;;;;;;5056640;28;20124;-25
2023/08/13 07:23:12;;;;;;;9.50;3.33;;;17.90;99.90;;;;;;5055755;28;20136;-26
2023/08/13 07:25:38;;;;;;;13.68;4.40;;;17.90;99.90;;;;;;5056189;28;20051;-25
2023/08/13 07:28:07;;;;;;;13.88;4.47;;;18.00;99.90;;;;;;5055675;28;20045;-26
2023/08/13 07:30:33;;;;;;;21.77;4.40;;;18.10;99.90;;;;;;5055619;28;20041;-25
2023/08/13 07:32:58;;;;;;;12.10;3.53;;;18.10;99.90;;;;;;5056154;28;20097;-25
2023/08/13 07:35:24;;;;;;;9.93;3.33;;;18.30;99.90;;;;;;5054221;28;20089;-25
2023/08/13 07:37:50;;;;;;;12.00;3.42;;;18.30;99.90;;;;;;5055195;28;20575;-25
2023/08/13 07:40:16;;;;;;;13.15;3.58;;;18.40;99.90;;;;;;5056011;28;20041;-25
2023/08/13 07:42:42;;;;;;;12.90;3.63;;;18.40;99.90;;;;;;5055418;28;20131;-25
2023/08/13 07:45:08;;;;;;;11.75;4.35;;;18.50;99.90;;;;;;5055339;28;20127;-26
2023/08/13 07:47:37;;;;;;;11.35;3.63;;;18.60;99.90;;;;;;5054642;28;20041;-25
2023/08/13 07:50:04;;;;;;;13.15;3.78;;;18.60;99.90;;;;;;5054432;28;20064;-25
2023/08/13 07:52:31;;;;;;;10.60;3.25;;;18.70;99.90;;;;;;5054586;28;20179;-25
2023/08/13 07:54:57;;;;;;;10.38;3.40;;;18.80;99.90;;;;;;5055141;28;20041;-26
2023/08/13 07:57:23;;;;;;;14.05;4.50;;;18.90;99.90;;;;;;5055098;28;20048;-25
2023/08/13 07:59:49;;;;;;;17.23;4.45;;;19.10;99.90;;;;;;5054188;28;20049;-26
2023/08/13 08:02:15;;;;;;;13.05;3.55;;;19.20;1.00;;;;;;5055011;28;20107;-26
2023/08/13 08:04:42;;;;;;;15.88;4.38;;;19.30;1.00;;;;;;5054972;28;20044;-26
2023/08/13 08:07:08;;;;;;;15.88;3.03;;;19.40;1.00;;;;;;5054869;28;20037;-26
2023/08/13 08:09:33;;;;;;;16.50;4.75;;;19.70;1.00;;;;;;5053728;28;20127;-26
2023/08/13 08:11:59;;;;;;;14.30;3.33;;;19.80;1.00;;;;;;5054657;28;20131;-25
2023/08/13 08:14:25;;;;;;;8.05;2.58;;;19.80;1.00;;;;;;5037751;28;20079;-25
2023/08/13 08:16:57;;;;;;;10.85;3.30;;;19.60;99.90;;;;;;5054665;28;20384;-26
2023/08/13 08:19:22;;;;;;;9.80;3.00;;;19.70;99.90;;;;;;5054856;28;20044;-25
2023/08/13 08:21:48;;;;;;;12.05;3.40;;;19.80;99.90;;;;;;5054174;28;20094;-26
2023/08/13 08:24:14;;;;;;;7.30;2.85;;;19.80;99.90;;;;;;5054766;28;20077;-26
2023/08/13 08:26:39;;;;;;;13.02;3.40;;;19.70;99.90;;;;;;5054611;28;20395;-26
2023/08/13 08:29:05;;;;;;;11.23;3.47;;;19.60;99.90;;;;;;5055310;28;20040;-26
2023/08/13 08:31:31;;;;;;;13.48;3.25;;;19.60;99.90;;;;;;5054444;28;20449;-25
2023/08/13 08:33:57;;;;;;;10.68;2.67;;;19.60;99.90;;;;;;5054370;28;20041;-26
2023/08/13 08:36:22;;;;;;;12.77;2.30;;;19.70;1.00;;;;;;5052747;28;20040;-27
2023/08/13 08:38:48;;;;;;;15.48;3.30;;;19.90;99.90;;;;;;5054310;28;20084;-26
2023/08/13 08:41:15;;;;;;;11.57;3.05;;;20.10;99.90;;;;;;5054994;28;20045;-26
2023/08/13 08:43:42;;;;;;;12.82;3.22;;;20.20;99.90;;;;;;5054790;28;20059;-26
2023/08/13 08:46:11;;;;;;;9.30;2.33;;;20.30;99.90;;;;;;5054129;28;20044;-26
2023/08/13 08:48:40;;;;;;;13.20;2.78;;;20.70;99.90;;;;;;5053659;28;20057;-26
2023/08/13 08:51:07;;;;;;;11.68;2.97;;;20.60;1.00;;;;;;5054152;28;20135;-26
2023/08/13 08:53:34;;;;;;;9.25;2.60;;;20.60;1.00;;;;;;5054228;28;20470;-26
2023/08/13 08:56:00;;;;;;;6.35;2.45;;;20.70;1.00;;;;;;5054101;28;20041;-26
2023/08/13 08:58:27;;;;;;;8.18;2.42;;;20.60;1.00;;;;;;5054059;28;20053;-26
2023/08/13 09:00:59;;;;;;;9.10;2.42;;;20.60;1.00;;;;;;5036740;28;20045;-26
2023/08/13 09:03:28;;;;;;;8.80;2.72;;;20.40;13.80;;;;;;5053302;28;20071;-28
2023/08/13 09:05:55;;;;;;;11.35;2.75;;;20.30;1.00;;;;;;5052793;28;20045;-26
2023/08/13 09:08:21;;;;;;;7.50;2.45;;;20.50;45.20;;;;;;5052695;28;20049;-26
2023/08/13 09:10:47;;;;;;;8.52;2.30;;;21.00;1.00;;;;;;5053320;28;20352;-27
2023/08/13 09:13:13;;;;;;;9.40;2.20;;;21.50;1.00;;;;;;5036544;28;20084;-27
2023/08/13 09:15:44;;;;;;;8.45;1.67;;;22.30;1.00;;;;;;5052246;28;20041;-27
2023/08/13 09:18:10;;;;;;;8.57;1.90;;;22.10;99.90;;;;;;5052768;28;20052;-27
2023/08/13 09:20:47;;;;;;;7.85;1.83;;;21.80;99.90;;;;;;5054526;28;20429;-26
2023/08/13 09:23:21;;;;;;;10.63;2.13;;;21.80;99.90;;;;;;5053669;28;20078;-26
2023/08/13 09:25:52;;;;;;;9.20;1.98;;;22.50;11.40;;;;;;5054099;28;20102;-26
2023/08/13 09:28:18;;;;;;;8.50;2.53;;;22.60;1.00;;;;;;5053629;28;20051;-27
2023/08/13 09:30:44;;;;;;;7.13;1.80;;;22.80;99.90;;;;;;5053637;28;20403;-26
2023/08/13 09:33:17;;;;;;;9.75;2.83;;;22.10;99.90;;;;;;5052310;28;20099;-26
2023/08/13 09:35:43;;;;;;;;;;;22.20;1.00;;;;;;5053796;28;20062;-26
2023/08/13 09:38:09;;;;;;;9.07;2.25;;;22.30;99.90;;;;;;5053518;28;20006;-27
2023/08/13 09:40:35;;;;;;;8.50;1.58;;;22.50;1.00;;;;;;5054024;28;20072;-27
2023/08/13 09:43:09;;;;;;;6.60;1.50;;;22.50;1.00;;;;;;5053505;28;20142;-26
2023/08/13 09:45:35;;;;;;;5.93;1.17;;;22.70;99.90;;;;;;5052335;28;20060;-26
2023/08/13 09:48:04;;;;;;;4.63;1.45;;;23.50;87.50;;;;;;5053744;28;20045;-27
2023/08/13 09:50:34;;;;;;;8.90;2.15;;;23.30;99.90;;;;;;5054642;28;20160;-26
2023/08/13 09:53:02;;;;;;;3.55;1.02;;;23.40;1.00;;;;;;5053458;28;20217;-27
2023/08/13 09:55:32;;;;;;;8.60;1.98;;;23.00;1.00;;;;;;5053319;28;20127;-26
2023/08/13 09:58:04;;;;;;;6.18;2.08;;;22.20;1.00;;;;;;5052366;28;20141;-26
2023/08/13 10:00:31;;;;;;;5.22;1.27;;;21.80;63.50;;;;;;5054234;28;20044;-26
2023/08/13 10:02:58;;;;;;;6.07;1.40;;;22.50;99.90;;;;;;5053244;28;20044;-27
2023/08/13 10:05:24;;;;;;;4.55;0.98;;;22.90;1.00;;;;;;5053159;28;20088;-26
2023/08/13 10:07:50;;;;;;;5.82;1.42;;;23.00;1.00;;;;;;5052915;28;20457;-26
2023/08/13 10:10:17;;;;;;;10.77;1.60;;;22.50;1.00;;;;;;5053200;28;20049;-27
2023/08/13 10:12:44;;;;;;;4.28;1.10;;;22.90;99.90;;;;;;5052214;28;20403;-26
2023/08/13 10:15:10;;;;;;;5.65;1.23;;;23.40;99.90;;;;;;5053223;28;20144;-27
2023/08/13 10:17:36;;;;;;;4.72;1.30;;;23.50;99.90;;;;;;5051635;28;20119;-26
2023/08/13 10:20:03;;;;;;;6.28;1.55;;;23.20;99.90;;;;;;5035832;28;20098;-28
2023/08/13 10:22:36;;;;;;;6.68;1.48;;;22.80;99.90;;;;;;5051893;28;20060;-27
2023/08/13 10:25:03;;;;;;;3.88;0.70;;;22.60;99.90;;;;;;5055970;28;20499;-26
2023/08/13 10:27:29;;;;;;;4.40;1.20;;;22.40;1.00;;;;;;5055553;28;20082;-27
2023/08/13 10:30:09;;;;;;;5.90;1.52;;;22.80;1.00;;;;;;5056817;28;20044;-27
2023/08/13 10:32:53;;;;;;;7.55;1.25;;;23.30;45.20;;;;;;5057385;28;20127;-27
2023/08/13 10:35:34;;;;;;;6.70;1.58;;;23.50;1.00;;;;;;5056466;28;20060;-26
2023/08/13 10:38:01;;;;;;;5.00;1.20;;;23.80;99.90;;;;;;5057046;28;20041;-27
2023/08/13 10:40:28;;;;;;;3.08;0.73;;;23.60;1.00;;;;;;5055668;28;20122;-27
2023/08/13 10:42:55;;;;;;;9.40;1.60;;;23.00;1.00;;;;;;5055580;28;20487;-28
2023/08/13 10:45:32;;;;;;;5.47;1.30;;;23.20;99.90;;;;;;5056288;28;20098;-27
2023/08/13 10:48:05;;;;;;;6.18;1.35;;;23.90;76.20;;;;;;5057334;28;20072;-26
2023/08/13 10:50:42;;;;;;;6.82;1.60;;;24.30;99.90;;;;;;5057011;28;20053;-27
2023/08/13 10:53:12;;;;;;;6.28;1.58;;;24.70;99.90;;;;;;5056344;28;20084;-27
2023/08/13 10:55:43;;;;;;;5.47;1.35;;;25.10;99.90;;;;;;5055142;28;20044;-28
2023/08/13 10:58:39;;;;;;;9.38;1.55;;;25.40;10.90;;;;;;5056271;28;20402;-26
2023/08/13 11:01:12;;;;;;;7.78;1.92;;;25.10;1.00;;;;;;5055073;28;20403;-27
2023/08/13 11:03:46;;;;;;;4.38;1.15;;;24.70;1.00;;;;;;5056074;28;20051;-27
2023/08/13 11:06:13;;;;;;;3.80;0.82;;;24.90;99.30;;;;;;5054848;28;20051;-27
2023/08/13 11:08:40;;;;;;;4.78;1.33;;;24.90;99.90;;;;;;5038498;28;20061;-27
2023/08/13 11:11:06;;;;;;;8.13;1.10;;;24.40;1.00;;;;;;5055999;28;20053;-27
2023/08/13 11:13:33;;;;;;;3.60;1.02;;;24.80;1.00;;;;;;5056284;28;20067;-27
2023/08/13 11:15:59;;;;;;;4.18;0.80;;;24.70;1.00;;;;;;5055645;28;20518;-26
2023/08/13 11:18:25;;;;;;;4.70;0.93;;;24.70;1.00;;;;;;5038843;28;20045;-27
2023/08/13 11:20:51;;;;;;;4.85;1.02;;;24.70;1.00;;;;;;5055547;28;20159;-26
2023/08/13 11:23:18;;;;;;;6.30;1.13;;;24.30;1.00;;;;;;5055853;28;20048;-28
2023/08/13 11:25:48;;;;;;;12.05;1.73;;;24.00;7.60;;;;;;5054716;28;20086;-26
2023/08/13 11:28:24;;;;;;;6.32;1.42;;;24.30;99.90;;;;;;5055708;28;20045;-28
2023/08/13 11:30:52;;;;;;;3.38;1.00;;;23.60;1.00;;;;;;5054647;28;20487;-26
2023/08/13 11:33:18;;;;;;;2.33;0.85;;;23.30;99.90;;;;;;5055665;28;20056;-26
2023/08/13 11:35:45;;;;;;;4.43;1.00;;;23.40;99.90;;;;;;5053587;28;20045;-27
2023/08/13 11:38:11;;;;;;;4.03;1.00;;;23.40;99.90;;;;;;5056102;28;20044;-27
2023/08/13 11:40:37;;;;;;;5.53;1.35;;;23.40;99.90;;;;;;5038524;28;20049;-27
2023/08/13 11:43:04;;;;;;;4.63;1.20;;;23.20;99.90;;;;;;5055690;28;20072;-26
2023/08/13 11:45:33;;;;;;;4.05;0.80;;;23.20;1.00;;;;;;5054370;28;20135;-27
2023/08/13 11:48:11;;;;;;;3.72;0.93;;;23.10;99.90;;;;;;5055353;28;20057;-26
2023/08/13 11:50:39;;;;;;;4.00;1.10;;;23.10;99.90;;;;;;5053640;28;20053;-26
2023/08/13 11:53:09;;;;;;;3.53;0.82;;;23.10;1.00;;;;;;5054570;28;20548;-26
2023/08/13 11:55:38;;;;;;;4.28;1.30;;;23.00;99.90;;;;;;5055791;28;20048;-26
2023/08/13 11:58:04;;;;;;;3.58;1.40;;;23.10;1.00;;;;;;5054086;28;20092;-27
2023/08/13 12:00:31;;;;;;;4.05;0.95;;;22.90;99.90;;;;;;5054009;28;20053;-26
2023/08/13 12:02:57;;;;;;;4.90;1.50;;;22.70;99.90;;;;;;5055356;28;20053;-27
2023/08/13 12:05:29;;;;;;;2.15;0.90;;;22.70;1.00;;;;;;5054266;28;20434;-26
2023/08/13 12:08:04;;;;;;;5.32;1.25;;;22.40;1.00;;;;;;5054982;28;20483;-27
2023/08/13 12:10:31;;;;;;;8.27;1.20;;;22.40;1.00;;;;;;5054964;28;20059;-26
2023/08/13 12:12:57;;;;;;;7.47;1.52;;;22.10;1.00;;;;;;5054890;28;20053;-27
2023/08/13 12:15:25;;;;;;;3.58;1.13;;;22.20;63.30;;;;;;5037788;28;20086;-26
2023/08/13 12:17:52;;;;;;;5.22;1.40;;;22.30;99.90;;;;;;5055249;28;20455;-26
2023/08/13 12:20:18;;;;;;;4.63;1.20;;;22.40;99.90;;;;;;5054704;28;20127;-26
2023/08/13 12:22:43;;;;;;;6.22;1.40;;;22.50;1.00;;;;;;5054675;28;20087;-26
2023/08/13 12:25:09;;;;;;;5.15;1.67;;;22.30;1.00;;;;;;5053492;28;20088;-27
2023/08/13 12:27:35;;;;;;;5.70;1.50;;;22.20;1.00;;;;;;5054566;28;20040;-26
2023/08/13 12:30:02;;;;;;;5.20;1.33;;;22.20;99.90;;;;;;5036755;28;20049;-26
2023/08/13 12:32:28;;;;;;;6.03;1.20;;;22.00;99.90;;;;;;5053291;28;20414;-26
2023/08/13 12:34:53;;;;;;;5.03;1.17;;;21.90;99.90;;;;;;5054237;28;20423;-26
2023/08/13 12:37:19;;;;;;;2.67;0.80;;;22.10;99.90;;;;;;5054412;28;20187;-26
2023/08/13 12:39:45;;;;;;;3.55;1.00;;;22.10;99.90;;;;;;5054409;28;20392;-26
2023/08/13 12:42:11;;;;;;;6.25;1.67;;;22.30;1.00;;;;;;5053121;28;20173;-26